METAR és
SPECI
METAR LHBP 190200Z VRB02KT 9999 BKN046 05/05 Q1018 NOSIG=
METAR LHBP 190130Z 13004KT 9999 FEW030 BKN038 05/05 Q1018 NOSIG=
METAR LHBP 190100Z VRB03KT 9999 SCT044 BKN050 05/05 Q1018 NOSIG=
METAR LHBP 190030Z VRB03KT 7000 BKN048 05/05 Q1018 NOSIG=
METAR LHBP 190000Z 13005KT 5000 BR BKN044 05/05 Q1018 NOSIG=
METAR LHBP 182330Z 13005KT 5000 BR BKN041 05/05 Q1018 NOSIG=
TAF
TAF LHBP 182300Z 1900/1924 17005KT 6000 BKN033 BKN090 TEMPO 1900/1908 2000 -RA BR FEW010 BKN020 OVC070 BECMG 1908/1911 25012KT CAVOK BECMG 1914/1917 20005KT=
GAMET
Nincs érvényes távirat! 
FAHU41 LHBM 181100
LHCC GAMET VALID 181200/181800 LHBP-
BUDAPEST FIR BLW FL100
SECN I
SFC VIS: 15/18 1000-5000M BCFG FZBCFG BR NE OF LINE
N4744 E01819 - N4709 E01844 - N4820 E02219
14/18 0500-5000M FG BCFG BR SW OF LINE
N4659 0E1613 - N4602 E01921
SIG CLD: 15/18 BKN 0800-1500/7000-8000FT AGL NE OF LINE
N4748 E01843 - N4714 E02151
ICE: 12/18 MOD 1500-2000/7000-8000FT AMSL
SIGMETS APPLICABLE: NIL=
AIRMET
Nincs érvényes távirat! 
WAHU41 LHBM 161000
LHCC AIRMET 01 VALID 161000/161200 LHBP-
LHCC BUDAPEST FIR SFC VIS 1000-3000 M OBS N OF LINE N4614
E01657 - N4820 E02219 STNR WKN=
SIGMET
Nincs érvényes távirat! 
WSHU31 LHBM 091130
LHCC SIGMET 03 VALID 091130/091530 LHBP-
LHCC BUDAPEST FIR SEV ICE FCST S OF LINE N4641 E01625 -
N4757 E01719 - N4734 E02206 5500FT/FL100 MOV S WKN=
SIGMET
Vulkáni hamufelhő
Not valid product! 
WVHU31 LHBM 271515 CCA
LHCC SIGMET 03 VALID 271515/271800 LHBP-
LHCC BUDAPEST FIR EXERCISE VOLCEX12/01
CNL VA SIGMET 02 271200/271800
EXERCISE EXERCISE EXERCISE VOLCEX12/01=